Time;durP1;ratioP1;P1;durP2;ratioP2;P2;SDS_P1;SDS_P2;PMS_P1;PMS_P2;Temp;Humidity;BMP_temperature;BMP_pressure;BME280_temperature;BME280_humidity;BME280_pressure;Samples;Min_cycle;Max_cycle;Signal;HPM_P1;HPM_P2
2023/02/28 00:00:33;;;;;;;3.20;2.72;;;1.00;83.50;;;;;;5028371;28;20181;-65
2023/02/28 00:02:59;;;;;;;3.65;2.80;;;1.10;83.60;;;;;;5025653;28;20623;-64
2023/02/28 00:05:26;;;;;;;3.60;2.80;;;0.30;83.40;;;;;;5027776;28;20289;-63
2023/02/28 00:07:52;;;;;;;3.65;2.70;;;1.00;84.70;;;;;;5025816;28;20233;-63
2023/02/28 00:10:22;;;;;;;4.72;3.20;;;0.80;85.80;;;;;;5026654;28;20181;-63
2023/02/28 00:12:49;;;;;;;2.45;2.25;;;1.00;85.80;;;;;;5027633;28;20210;-63
2023/02/28 00:15:15;;;;;;;4.70;3.17;;;0.90;85.70;;;;;;5027421;28;20236;-63
2023/02/28 00:17:40;;;;;;;4.03;3.40;;;0.70;85.10;;;;;;5024109;28;20585;-63
2023/02/28 00:20:11;;;;;;;3.30;2.50;;;0.30;85.60;;;;;;5026890;28;20186;-62
2023/02/28 00:22:49;;;;;;;3.30;2.90;;;0.70;85.30;;;;;;5027029;28;20182;-64
2023/02/28 00:25:19;;;;;;;3.28;3.08;;;0.90;85.40;;;;;;5024672;28;20186;-63
2023/02/28 00:27:45;;;;;;;2.70;2.45;;;0.60;86.60;;;;;;5026518;28;20281;-64
2023/02/28 00:30:13;;;;;;;3.10;2.80;;;0.00;86.90;;;;;;5027547;28;20252;-65
2023/02/28 00:32:39;;;;;;;3.20;2.90;;;0.80;87.90;;;;;;5026446;28;20237;-64
2023/02/28 00:35:06;;;;;;;4.03;2.90;;;0.60;87.10;;;;;;5024360;28;20332;-64
2023/02/28 00:37:31;;;;;;;2.35;2.15;;;0.70;86.70;;;;;;5025467;28;20213;-64
2023/02/28 00:39:57;;;;;;;6.83;2.70;;;0.80;86.90;;;;;;5026582;28;20186;-64
2023/02/28 00:42:24;;;;;;;2.90;2.70;;;0.80;87.50;;;;;;5027603;28;20664;-62
2023/02/28 00:44:49;;;;;;;3.03;2.72;;;1.00;88.20;;;;;;5026909;28;20277;-65
2023/02/28 00:47:15;;;;;;;3.47;2.67;;;0.50;87.90;;;;;;5026416;28;20298;-65
2023/02/28 00:49:41;;;;;;;2.88;2.47;;;0.60;87.70;;;;;;5025971;28;20213;-65
2023/02/28 00:52:07;;;;;;;2.60;2.40;;;0.60;89.10;;;;;;5027119;28;20213;-63
2023/02/28 00:54:33;;;;;;;2.93;2.73;;;0.60;88.80;;;;;;5026372;28;20179;-65
2023/02/28 00:56:59;;;;;;;3.10;2.83;;;-0.10;88.00;;;;;;5023418;28;20441;-64
2023/02/28 00:59:24;;;;;;;3.13;2.83;;;-0.10;88.90;;;;;;5024898;28;20201;-62
2023/02/28 01:01:50;;;;;;;5.10;3.10;;;0.50;89.30;;;;;;5028323;28;20190;-63
2023/02/28 01:04:16;;;;;;;3.80;2.80;;;0.50;89.40;;;;;;5028482;28;20192;-62
2023/02/28 01:06:42;;;;;;;4.23;3.43;;;1.00;90.30;;;;;;5031106;28;20549;-63
2023/02/28 01:09:08;;;;;;;4.57;2.97;;;0.70;89.80;;;;;;5025683;28;20467;-62
2023/02/28 01:11:35;;;;;;;4.47;2.85;;;0.60;90.00;;;;;;5030314;28;20186;-62
2023/02/28 01:14:01;;;;;;;3.03;2.72;;;0.40;89.60;;;;;;5030859;28;20210;-63
2023/02/28 01:16:26;;;;;;;3.28;3.00;;;0.90;90.50;;;;;;5029636;28;20185;-63
2023/02/28 01:18:52;;;;;;;3.67;3.13;;;0.40;90.30;;;;;;5030513;28;20202;-64
2023/02/28 01:21:19;;;;;;;3.30;2.70;;;0.60;90.60;;;;;;5030723;28;20448;-64
2023/02/28 01:23:46;;;;;;;3.10;2.80;;;-0.20;90.60;;;;;;5027880;28;21009;-62
2023/02/28 01:26:22;;;;;;;3.45;2.90;;;0.50;90.70;;;;;;5031870;28;20192;-64
2023/02/28 01:28:49;;;;;;;2.80;2.60;;;0.90;91.30;;;;;;5030095;28;20237;-62
2023/02/28 01:31:15;;;;;;;3.40;2.90;;;0.20;90.90;;;;;;5029540;28;20718;-62
2023/02/28 01:33:41;;;;;;;3.40;2.78;;;0.30;91.20;;;;;;5030729;28;20597;-62
2023/02/28 01:36:13;;;;;;;3.67;2.50;;;0.50;91.60;;;;;;5030452;28;20197;-63
2023/02/28 01:38:40;;;;;;;5.00;3.00;;;0.20;92.10;;;;;;5029436;28;20490;-63
2023/02/28 01:41:06;;;;;;;3.95;2.65;;;0.40;92.10;;;;;;5030760;28;20186;-64
2023/02/28 01:43:53;;;;;;;4.85;3.13;;;0.40;92.30;;;;;;5028974;28;20536;-63
2023/02/28 01:46:19;;;;;;;3.10;2.80;;;0.30;92.40;;;;;;5029532;28;20186;-64
2023/02/28 01:49:11;;;;;;;6.50;3.63;;;0.30;92.40;;;;;;5027630;28;20228;-64
2023/02/28 01:51:50;;;;;;;3.28;2.90;;;0.20;92.70;;;;;;5025870;28;20714;-64
2023/02/28 01:54:23;;;;;;;3.97;3.55;;;0.20;92.80;;;;;;5022211;28;20197;-64
2023/02/28 01:57:03;;;;;;;4.07;3.17;;;0.10;93.00;;;;;;5030484;28;20202;-64
2023/02/28 01:59:31;;;;;;;3.83;3.42;;;0.70;93.50;;;;;;5023496;28;20198;-64
2023/02/28 02:01:57;;;;;;;3.70;3.15;;;0.20;93.20;;;;;;5025406;28;20269;-64
2023/02/28 02:04:28;;;;;;;6.20;3.80;;;0.20;93.20;;;;;;5029967;28;20641;-64
2023/02/28 02:06:54;;;;;;;4.25;3.65;;;0.10;93.50;;;;;;5026744;28;20226;-64
2023/02/28 02:09:20;;;;;;;3.80;3.40;;;0.30;93.80;;;;;;5027865;28;20587;-64
2023/02/28 02:11:46;;;;;;;4.53;3.20;;;0.20;93.70;;;;;;5029557;28;20186;-64
2023/02/28 02:14:36;;;;;;;4.25;3.85;;;0.40;94.00;;;;;;5030467;28;20197;-64
2023/02/28 02:17:10;;;;;;;5.90;3.30;;;0.30;94.00;;;;;;5027405;28;20191;-64
2023/02/28 02:19:55;;;;;;;4.75;3.58;;;0.50;94.10;;;;;;5027755;28;20255;-64
2023/02/28 02:22:52;;;;;;;4.38;3.33;;;0.90;94.40;;;;;;5025009;28;20186;-64
2023/02/28 02:25:28;;;;;;;3.95;3.33;;;0.30;94.20;;;;;;5026472;28;20580;-63
2023/02/28 02:28:22;;;;;;;4.25;3.50;;;0.30;94.20;;;;;;5023425;28;20343;-64
2023/02/28 02:30:53;;;;;;;4.22;3.70;;;0.50;94.60;;;;;;5028046;28;20220;-64
2023/02/28 02:33:37;;;;;;;3.95;3.55;;;0.40;94.80;;;;;;5022903;28;20206;-64
2023/02/28 02:36:14;;;;;;;3.92;3.47;;;0.20;94.90;;;;;;5025668;28;20186;-65
2023/02/28 02:39:10;;;;;;;3.80;3.50;;;0.30;94.90;;;;;;5026528;28;20209;-64
2023/02/28 02:41:41;;;;;;;4.63;4.05;;;1.00;95.20;;;;;;5028594;28;21018;-64
2023/02/28 02:44:13;;;;;;;4.97;3.60;;;0.30;95.00;;;;;;5029500;28;20201;-64
2023/02/28 02:46:43;;;;;;;6.47;4.00;;;0.50;95.00;;;;;;5028811;28;20186;-64
2023/02/28 02:49:15;;;;;;;4.97;3.17;;;0.90;95.00;;;;;;5026479;28;20264;-64
2023/02/28 02:51:43;;;;;;;4.40;4.00;;;0.50;95.20;;;;;;5028643;28;20194;-64
2023/02/28 02:54:15;;;;;;;4.40;4.00;;;0.20;94.90;;;;;;5024780;28;20206;-64
2023/02/28 02:56:44;;;;;;;5.28;3.75;;;-0.30;95.30;;;;;;5027329;28;20179;-63
2023/02/28 02:59:13;;;;;;;4.90;4.40;;;0.40;95.90;;;;;;5031014;28;20233;-64
2023/02/28 03:01:40;;;;;;;5.85;4.13;;;0.20;96.10;;;;;;5027679;28;20178;-64
2023/02/28 03:04:10;;;;;;;3.80;3.30;;;0.30;96.30;;;;;;5029329;28;20309;-64
2023/02/28 03:06:36;;;;;;;5.70;4.30;;;0.40;96.30;;;;;;5027838;28;20569;-62
2023/02/28 03:09:02;;;;;;;4.20;3.80;;;0.00;95.90;;;;;;5027552;28;20210;-64
2023/02/28 03:11:29;;;;;;;5.63;4.30;;;0.60;96.20;;;;;;5028374;28;20248;-64
2023/02/28 03:14:03;;;;;;;4.38;3.97;;;1.00;96.70;;;;;;5029787;28;20617;-63
2023/02/28 03:16:41;;;;;;;4.28;3.90;;;1.10;96.50;;;;;;5024907;28;20174;-64
2023/02/28 03:19:32;;;;;;;5.60;5.10;;;0.60;96.40;;;;;;5026312;28;20276;-64
2023/02/28 03:22:12;;;;;;;6.25;4.50;;;0.70;96.20;;;;;;5028837;28;20190;-64
2023/02/28 03:24:48;;;;;;;4.95;4.45;;;0.60;96.80;;;;;;5026164;28;20194;-65
2023/02/28 03:27:29;;;;;;;4.40;3.97;;;0.40;96.80;;;;;;5025972;28;20908;-65
2023/02/28 03:30:06;;;;;;;4.55;3.95;;;0.50;96.90;;;;;;5025465;28;20198;-65
2023/02/28 03:32:58;;;;;;;5.65;4.32;;;0.60;96.70;;;;;;5027209;28;20201;-65
2023/02/28 03:35:29;;;;;;;4.07;3.78;;;0.60;96.70;;;;;;5025687;28;20178;-65
2023/02/28 03:38:16;;;;;;;5.20;4.35;;;0.00;96.60;;;;;;5027908;28;20222;-65
2023/02/28 03:40:48;;;;;;;5.97;4.30;;;0.70;96.90;;;;;;5027590;28;20221;-66
2023/02/28 03:43:22;;;;;;;4.75;4.32;;;0.70;96.80;;;;;;5028073;28;20221;-65
2023/02/28 03:45:50;;;;;;;5.50;4.22;;;0.70;96.90;;;;;;5028543;28;20683;-63
2023/02/28 03:48:23;;;;;;;5.10;4.60;;;0.50;97.10;;;;;;5025658;28;20222;-63
2023/02/28 03:50:55;;;;;;;6.78;4.88;;;0.70;97.70;;;;;;5026983;28;20209;-65
2023/02/28 03:53:27;;;;;;;4.80;4.22;;;0.70;97.60;;;;;;5023440;28;20530;-64
2023/02/28 03:55:59;;;;;;;4.45;4.05;;;0.50;97.60;;;;;;5022357;28;20441;-64
2023/02/28 03:58:41;;;;;;;4.75;4.25;;;0.50;97.30;;;;;;5025964;28;20223;-64
2023/02/28 04:01:18;;;;;;;4.82;4.32;;;0.70;97.60;;;;;;5026948;28;20213;-64
2023/02/28 04:03:44;;;;;;;5.10;3.75;;;0.60;97.80;;;;;;5028220;28;20190;-64
2023/02/28 04:06:16;;;;;;;5.67;4.23;;;0.80;98.10;;;;;;5027755;28;20220;-65
2023/02/28 04:08:42;;;;;;;6.20;4.80;;;0.90;97.70;;;;;;5024875;28;20484;-65
2023/02/28 04:11:27;;;;;;;7.07;5.33;;;1.40;97.90;;;;;;5026890;28;20212;-64
2023/02/28 04:13:53;;;;;;;7.60;4.68;;;0.70;97.50;;;;;;5028088;28;20249;-66
2023/02/28 04:16:19;;;;;;;4.90;4.40;;;0.90;97.70;;;;;;5026901;28;20241;-65
2023/02/28 04:18:44;;;;;;;5.43;4.93;;;0.90;97.50;;;;;;5026045;28;20198;-65
2023/02/28 04:21:11;;;;;;;5.07;4.60;;;0.90;97.40;;;;;;5028005;28;20182;-64
2023/02/28 04:23:36;;;;;;;5.80;4.45;;;0.90;97.10;;;;;;5025398;28;20262;-65
2023/02/28 04:26:02;;;;;;;5.20;4.63;;;0.80;97.10;;;;;;5027274;28;20227;-65
2023/02/28 04:28:28;;;;;;;5.10;4.30;;;0.90;97.30;;;;;;5025526;28;20236;-65
2023/02/28 04:30:59;;;;;;;4.53;4.13;;;1.00;97.20;;;;;;5025372;28;20648;-66
2023/02/28 04:33:25;;;;;;;4.80;4.20;;;0.60;97.50;;;;;;5027581;28;20210;-64
2023/02/28 04:36:08;;;;;;;6.57;4.67;;;0.90;97.60;;;;;;5026812;28;20554;-63
2023/02/28 04:38:37;;;;;;;4.88;4.38;;;0.90;97.20;;;;;;5024145;28;20244;-63
2023/02/28 04:41:03;;;;;;;5.22;4.72;;;0.60;97.00;;;;;;5027252;28;20178;-63
2023/02/28 04:43:29;;;;;;;5.13;4.63;;;1.00;97.20;;;;;;5027509;28;20213;-63
2023/02/28 04:45:59;;;;;;;5.18;4.68;;;1.00;97.60;;;;;;5027908;28;20190;-66
2023/02/28 04:48:26;;;;;;;5.05;4.32;;;1.30;97.90;;;;;;5024080;28;20218;-66
2023/02/28 04:50:52;;;;;;;5.75;4.63;;;1.10;97.60;;;;;;5027254;28;20187;-66
2023/02/28 04:53:18;;;;;;;6.17;4.30;;;1.00;97.70;;;;;;5024415;28;20236;-64
2023/02/28 04:55:44;;;;;;;7.35;4.88;;;1.00;97.50;;;;;;5027395;28;20190;-65
2023/02/28 04:58:10;;;;;;;5.55;4.80;;;1.10;97.50;;;;;;5026950;28;20276;-64
2023/02/28 05:00:36;;;;;;;5.10;4.60;;;1.00;97.60;;;;;;5027244;28;20652;-64
2023/02/28 05:03:02;;;;;;;6.17;5.57;;;0.80;97.70;;;;;;5025851;28;20445;-64
2023/02/28 05:05:27;;;;;;;4.83;4.33;;;1.60;98.00;;;;;;5026660;28;20281;-65
2023/02/28 05:07:55;;;;;;;5.93;5.20;;;1.20;97.90;;;;;;5023039;28;20198;-65
2023/02/28 05:10:21;;;;;;;5.28;4.78;;;0.70;97.40;;;;;;5026750;28;20449;-62
2023/02/28 05:12:47;;;;;;;6.70;4.60;;;1.00;97.10;;;;;;5029122;28;20214;-65
2023/02/28 05:15:15;;;;;;;4.95;4.50;;;1.10;97.20;;;;;;5026396;28;20183;-64
2023/02/28 05:17:41;;;;;;;5.10;4.55;;;1.20;96.90;;;;;;5025266;28;20214;-65
2023/02/28 05:20:11;;;;;;;6.05;4.57;;;1.20;97.40;;;;;;5027795;28;20254;-64
2023/02/28 05:22:37;;;;;;;6.75;4.55;;;1.20;97.40;;;;;;5028532;28;20233;-63
2023/02/28 05:25:04;;;;;;;6.32;5.53;;;1.00;97.70;;;;;;5022175;28;20293;-64
2023/02/28 05:27:30;;;;;;;5.43;4.40;;;0.90;97.40;;;;;;5022676;28;20515;-64
2023/02/28 05:29:56;;;;;;;6.00;5.23;;;1.10;97.80;;;;;;5018889;28;20202;-64
2023/02/28 05:32:22;;;;;;;6.17;5.13;;;1.10;97.70;;;;;;5021438;28;20844;-63
2023/02/28 05:34:47;;;;;;;6.78;5.18;;;1.00;97.90;;;;;;5023342;28;21039;-64
2023/02/28 05:37:15;;;;;;;6.27;5.00;;;1.20;98.50;;;;;;5022207;28;20316;-65
2023/02/28 05:39:41;;;;;;;7.68;5.82;;;1.10;98.20;;;;;;5022630;28;20297;-64
2023/02/28 05:42:07;;;;;;;9.48;5.60;;;1.00;98.30;;;;;;5026549;28;20190;-64
2023/02/28 05:44:33;;;;;;;5.53;4.87;;;1.20;98.30;;;;;;5023878;28;20175;-64
2023/02/28 05:46:59;;;;;;;5.90;5.22;;;1.20;98.30;;;;;;5023394;28;21340;-65
2023/02/28 05:49:25;;;;;;;5.17;4.67;;;1.00;98.40;;;;;;5027074;28;20195;-64
2023/02/28 05:51:50;;;;;;;7.50;5.60;;;1.10;98.30;;;;;;5030223;28;20186;-65
2023/02/28 05:54:16;;;;;;;5.67;4.60;;;1.60;98.50;;;;;;5026247;28;20217;-64
2023/02/28 05:56:45;;;;;;;6.23;5.40;;;1.30;98.30;;;;;;5030380;28;20202;-62
2023/02/28 05:59:14;;;;;;;5.15;4.60;;;1.00;98.50;;;;;;5029698;28;20541;-65
2023/02/28 06:01:47;;;;;;;6.85;6.15;;;1.10;98.50;;;;;;5028384;28;20182;-63
2023/02/28 06:04:17;;;;;;;7.13;5.47;;;1.10;98.00;;;;;;5020506;28;20198;-63
2023/02/28 06:06:44;;;;;;;6.65;5.30;;;1.00;98.30;;;;;;5028902;28;20666;-64
2023/02/28 06:09:10;;;;;;;7.72;5.20;;;1.10;98.60;;;;;;5022270;28;20198;-64
2023/02/28 06:11:36;;;;;;;8.70;5.90;;;1.40;98.80;;;;;;5024589;28;20285;-64
2023/02/28 06:14:02;;;;;;;5.73;5.03;;;0.90;98.30;;;;;;5025980;28;20238;-65
2023/02/28 06:16:29;;;;;;;6.97;6.03;;;1.00;98.60;;;;;;5020239;28;20447;-67
2023/02/28 06:18:57;;;;;;;6.60;5.47;;;1.10;98.90;;;;;;5027557;28;20626;-68
2023/02/28 06:21:23;;;;;;;6.75;5.55;;;1.60;99.00;;;;;;5026827;28;20179;-68
2023/02/28 06:23:50;;;;;;;7.10;5.57;;;1.10;98.70;;;;;;5022923;28;20198;-63
2023/02/28 06:26:15;;;;;;;7.45;6.45;;;1.10;98.80;;;;;;5028012;28;20265;-63
2023/02/28 06:28:41;;;;;;;7.40;5.83;;;1.30;98.80;;;;;;5029699;28;20329;-62
2023/02/28 06:31:12;;;;;;;8.47;6.00;;;1.20;98.50;;;;;;5026589;28;20840;-63
2023/02/28 06:33:39;;;;;;;6.38;5.45;;;1.10;98.60;;;;;;5025236;28;20792;-64
2023/02/28 06:36:06;;;;;;;8.05;5.65;;;1.40;98.50;;;;;;5023463;28;20218;-63
2023/02/28 06:38:32;;;;;;;9.02;6.28;;;1.10;98.40;;;;;;5026480;28;20628;-66
2023/02/28 06:41:00;;;;;;;6.10;5.47;;;1.40;98.60;;;;;;5016294;28;20204;-67
2023/02/28 06:43:28;;;;;;;7.63;5.55;;;1.40;98.20;;;;;;5027396;28;20182;-63
2023/02/28 06:45:56;;;;;;;7.05;5.88;;;1.40;98.40;;;;;;5026640;28;20198;-66
2023/02/28 06:48:21;;;;;;;7.63;5.80;;;1.40;98.50;;;;;;5028720;28;20312;-62
2023/02/28 06:50:47;;;;;;;8.70;6.47;;;1.20;98.30;;;;;;5027881;28;20266;-63
2023/02/28 06:53:13;;;;;;;5.87;4.83;;;1.40;98.40;;;;;;5025730;28;21102;-63
2023/02/28 06:55:39;;;;;;;8.20;5.80;;;1.50;98.30;;;;;;5025664;28;20664;-64
2023/02/28 06:58:14;;;;;;;7.00;5.47;;;1.50;98.20;;;;;;5028289;28;20519;-64
2023/02/28 07:00:42;;;;;;;7.07;6.10;;;1.50;97.90;;;;;;5024091;28;20177;-63
2023/02/28 07:03:07;;;;;;;6.22;5.68;;;1.60;97.70;;;;;;5019884;28;20235;-63
2023/02/28 07:05:35;;;;;;;7.63;6.27;;;1.60;97.60;;;;;;5024057;28;20248;-67
2023/02/28 07:08:01;;;;;;;7.70;6.22;;;1.50;97.40;;;;;;5021715;28;20221;-63
2023/02/28 07:10:27;;;;;;;9.70;6.15;;;1.70;98.10;;;;;;5025106;28;20193;-66
2023/02/28 07:12:52;;;;;;;7.57;5.77;;;2.30;98.60;;;;;;5021499;28;20218;-64
2023/02/28 07:15:18;;;;;;;8.40;6.70;;;1.90;97.70;;;;;;5021977;28;20695;-63
2023/02/28 07:17:43;;;;;;;6.93;6.23;;;2.00;97.70;;;;;;5024861;28;20718;-63
2023/02/28 07:20:10;;;;;;;6.87;5.40;;;1.90;97.80;;;;;;5023978;28;20191;-66
2023/02/28 07:22:35;;;;;;;6.35;5.70;;;2.10;96.70;;;;;;5022960;28;20281;-67
2023/02/28 07:25:01;;;;;;;6.80;6.10;;;2.10;96.30;;;;;;5024626;28;20546;-63
2023/02/28 07:27:26;;;;;;;9.57;6.30;;;1.50;96.10;;;;;;5025956;28;20586;-68
2023/02/28 07:29:53;;;;;;;9.43;6.57;;;1.80;96.40;;;;;;5028510;28;20207;-67
2023/02/28 07:32:19;;;;;;;10.20;7.38;;;1.90;96.10;;;;;;5021361;28;20211;-65
2023/02/28 07:34:45;;;;;;;7.85;6.32;;;1.90;95.60;;;;;;5024626;28;20186;-64
2023/02/28 07:37:11;;;;;;;6.53;5.78;;;1.80;95.50;;;;;;5024422;28;20690;-63
2023/02/28 07:39:36;;;;;;;7.30;6.20;;;1.80;95.50;;;;;;5023374;28;20233;-64
2023/02/28 07:42:09;;;;;;;6.83;5.90;;;1.50;95.30;;;;;;5027461;28;20459;-64
2023/02/28 07:44:35;;;;;;;7.30;5.82;;;1.60;95.40;;;;;;5027162;28;20182;-64
2023/02/28 07:47:00;;;;;;;8.90;7.18;;;1.10;95.50;;;;;;5025191;28;20189;-64
2023/02/28 07:49:26;;;;;;;8.83;7.23;;;1.80;95.70;;;;;;5026471;28;20210;-64
2023/02/28 07:51:52;;;;;;;8.17;6.50;;;1.70;96.50;;;;;;5025914;28;20645;-66
2023/02/28 07:54:17;;;;;;;9.73;7.50;;;1.80;95.90;;;;;;5022716;28;20210;-65
2023/02/28 07:56:43;;;;;;;7.60;6.33;;;1.80;95.60;;;;;;5025006;28;20194;-64
2023/02/28 07:59:09;;;;;;;9.40;6.80;;;1.50;94.90;;;;;;5025192;28;20640;-64
2023/02/28 08:01:34;;;;;;;10.07;7.27;;;1.90;94.90;;;;;;5025636;28;20250;-66
2023/02/28 08:04:00;;;;;;;9.20;7.30;;;2.00;95.20;;;;;;5025756;28;20437;-67
2023/02/28 08:06:26;;;;;;;7.33;6.60;;;2.40;95.10;;;;;;5025989;28;20183;-66
2023/02/28 08:08:53;;;;;;;6.80;6.10;;;2.20;95.00;;;;;;5022248;28;20206;-66
2023/02/28 08:11:18;;;;;;;8.15;6.55;;;1.70;94.40;;;;;;5020237;28;20536;-65
2023/02/28 08:13:45;;;;;;;7.30;6.20;;;2.00;94.40;;;;;;5023217;28;20218;-65
2023/02/28 08:16:17;;;;;;;10.68;7.60;;;2.00;94.70;;;;;;5025189;28;20482;-64
2023/02/28 08:18:42;;;;;;;6.82;6.13;;;2.00;94.70;;;;;;5028448;28;20217;-65
2023/02/28 08:21:08;;;;;;;9.30;6.77;;;2.10;94.70;;;;;;5025850;28;20182;-64
2023/02/28 08:23:34;;;;;;;7.80;6.80;;;2.00;94.30;;;;;;5026946;28;20547;-64
2023/02/28 08:26:00;;;;;;;9.20;6.72;;;2.00;94.50;;;;;;5025409;28;20214;-64
2023/02/28 08:28:26;;;;;;;8.37;7.10;;;1.80;94.60;;;;;;5028454;28;20257;-64
2023/02/28 08:30:52;;;;;;;9.47;7.23;;;2.00;94.20;;;;;;5026687;28;20449;-64
2023/02/28 08:33:17;;;;;;;8.23;6.90;;;1.80;94.30;;;;;;5025064;28;20279;-65
2023/02/28 08:35:43;;;;;;;10.53;7.07;;;1.30;94.10;;;;;;5026681;28;21393;-63
2023/02/28 08:38:08;;;;;;;9.47;7.37;;;1.50;94.10;;;;;;5023646;28;20206;-63
2023/02/28 08:40:34;;;;;;;8.37;7.43;;;2.00;94.40;;;;;;5025980;28;20216;-63
2023/02/28 08:43:00;;;;;;;7.77;6.93;;;1.70;94.60;;;;;;5024958;28;20273;-62
2023/02/28 08:45:25;;;;;;;10.30;7.77;;;1.90;94.20;;;;;;5026763;28;20218;-63
2023/02/28 08:47:52;;;;;;;10.43;6.93;;;2.10;94.70;;;;;;5021366;28;20286;-64
2023/02/28 08:50:18;;;;;;;9.25;7.60;;;1.90;94.20;;;;;;5025817;28;20445;-63
2023/02/28 08:52:44;;;;;;;8.13;7.30;;;2.20;94.30;;;;;;5026460;28;20265;-63
2023/02/28 08:55:10;;;;;;;10.10;7.15;;;2.10;94.30;;;;;;5026154;28;20746;-62
2023/02/28 08:57:36;;;;;;;8.55;7.65;;;1.90;93.70;;;;;;5026949;28;20242;-66
2023/02/28 09:00:04;;;;;;;9.33;6.90;;;2.10;94.30;;;;;;5029679;28;20178;-66
2023/02/28 09:02:31;;;;;;;8.00;7.20;;;2.30;94.30;;;;;;5024721;28;20190;-64
2023/02/28 09:04:57;;;;;;;10.90;8.02;;;2.20;94.20;;;;;;5017112;28;20305;-65
2023/02/28 09:07:23;;;;;;;8.63;7.32;;;2.00;94.30;;;;;;5023979;28;20206;-63
2023/02/28 09:09:55;;;;;;;9.55;7.03;;;2.30;94.20;;;;;;5024317;28;20316;-66
2023/02/28 09:12:25;;;;;;;8.32;7.13;;;2.10;93.80;;;;;;5019857;28;20195;-65
2023/02/28 09:14:52;;;;;;;9.35;7.20;;;2.10;93.90;;;;;;5026696;28;20179;-65
2023/02/28 09:17:18;;;;;;;8.77;7.88;;;2.10;93.50;;;;;;5024594;28;20183;-65
2023/02/28 09:19:44;;;;;;;8.65;7.68;;;2.20;93.80;;;;;;5025262;28;20223;-66
2023/02/28 09:22:11;;;;;;;10.73;7.90;;;2.40;94.10;;;;;;5032004;28;20185;-66
2023/02/28 09:24:37;;;;;;;8.40;7.28;;;2.50;94.00;;;;;;5021092;28;20648;-66
2023/02/28 09:27:03;;;;;;;8.45;7.43;;;2.40;93.80;;;;;;5029721;28;20214;-66
2023/02/28 09:29:29;;;;;;;7.95;7.15;;;2.90;93.90;;;;;;5027329;28;20669;-66
2023/02/28 09:31:56;;;;;;;8.45;7.53;;;2.20;93.50;;;;;;5031962;28;20277;-65
2023/02/28 09:34:21;;;;;;;12.45;7.72;;;2.40;93.10;;;;;;5028227;28;20230;-66
2023/02/28 09:36:47;;;;;;;9.70;7.33;;;2.50;93.10;;;;;;5028527;28;20198;-65
2023/02/28 09:39:15;;;;;;;11.50;8.90;;;2.10;92.90;;;;;;5025635;28;20210;-64
2023/02/28 09:41:49;;;;;;;9.73;7.90;;;2.70;93.40;;;;;;5030127;28;20190;-65
2023/02/28 09:44:29;;;;;;;15.60;9.30;;;2.60;93.60;;;;;;5028267;28;20705;-64
2023/02/28 09:46:59;;;;;;;8.18;6.55;;;2.60;93.20;;;;;;5024180;28;20194;-64
2023/02/28 09:49:33;;;;;;;10.55;7.68;;;2.20;92.70;;;;;;5028544;28;20210;-64
2023/02/28 09:52:26;;;;;;;9.57;7.47;;;3.10;93.10;;;;;;5028910;28;20194;-65
2023/02/28 09:54:52;;;;;;;8.95;7.30;;;2.20;92.80;;;;;;5024698;28;20190;-63
2023/02/28 09:57:35;;;;;;;8.30;7.15;;;3.00;92.80;;;;;;5030197;28;20189;-63
2023/02/28 10:00:24;;;;;;;8.75;7.82;;;3.10;92.30;;;;;;5027555;28;20266;-65
2023/02/28 10:03:34;;;;;;;9.07;7.85;;;3.30;91.80;;;;;;5027462;28;20222;-65
2023/02/28 10:06:08;;;;;;;12.50;8.10;;;3.40;91.60;;;;;;5026284;28;20207;-65
2023/02/28 10:09:05;;;;;;;8.90;7.78;;;3.40;91.70;;;;;;5023854;28;20655;-67
2023/02/28 10:11:34;;;;;;;11.30;8.65;;;3.50;91.70;;;;;;5025127;28;20281;-64
2023/02/28 10:14:21;;;;;;;10.57;8.00;;;3.40;91.30;;;;;;5029074;28;20252;-66
2023/02/28 10:17:09;;;;;;;9.30;8.10;;;3.50;91.20;;;;;;5029184;28;20187;-62
2023/02/28 10:19:49;;;;;;;9.63;8.52;;;3.50;91.30;;;;;;5019552;28;20196;-62
2023/02/28 10:22:17;;;;;;;11.52;9.10;;;3.50;91.20;;;;;;5027898;28;20183;-62
2023/02/28 10:24:46;;;;;;;8.90;7.85;;;3.30;91.00;;;;;;5024872;28;20668;-63
2023/02/28 10:27:19;;;;;;;7.78;6.88;;;3.20;91.00;;;;;;5027266;28;20223;-62
2023/02/28 10:29:49;;;;;;;9.73;7.78;;;3.20;91.10;;;;;;5025408;28;20234;-63
2023/02/28 10:32:19;;;;;;;12.00;8.48;;;3.60;91.00;;;;;;5027572;28;20178;-63
2023/02/28 10:34:46;;;;;;;10.95;8.50;;;3.00;91.50;;;;;;5029232;28;20183;-63
2023/02/28 10:37:13;;;;;;;8.90;8.00;;;3.80;91.40;;;;;;5025961;28;20193;-63
2023/02/28 10:39:45;;;;;;;11.35;9.30;;;3.40;91.00;;;;;;5028545;28;20211;-63
2023/02/28 10:42:25;;;;;;;10.55;8.85;;;3.60;90.90;;;;;;5026433;28;20559;-63
2023/02/28 10:45:12;;;;;;;8.52;7.63;;;3.90;90.70;;;;;;5028524;28;20275;-63
2023/02/28 10:47:53;;;;;;;12.30;8.50;;;4.10;89.30;;;;;;5025474;28;20198;-63
2023/02/28 10:50:44;;;;;;;8.20;7.30;;;4.00;90.20;;;;;;5024392;28;20257;-65
2023/02/28 10:53:24;;;;;;;8.65;7.10;;;4.20;89.90;;;;;;5020993;28;20208;-63
2023/02/28 10:56:04;;;;;;;10.07;8.93;;;4.30;88.60;;;;;;5032060;28;20256;-64
2023/02/28 10:59:07;;;;;;;10.73;8.45;;;4.30;88.10;;;;;;5027718;28;20284;-64
2023/02/28 11:01:40;;;;;;;8.43;7.43;;;4.40;87.80;;;;;;5029380;28;20748;-64
2023/02/28 11:04:36;;;;;;;10.25;8.18;;;4.50;87.90;;;;;;5029144;28;20250;-64
2023/02/28 11:07:23;;;;;;;9.40;8.35;;;4.80;87.50;;;;;;5025656;28;20234;-64
2023/02/28 11:09:51;;;;;;;10.43;8.95;;;4.80;87.40;;;;;;5022993;28;20346;-63
2023/02/28 11:12:23;;;;;;;9.27;7.90;;;4.80;86.90;;;;;;5028783;28;20212;-64
2023/02/28 11:14:55;;;;;;;9.68;8.38;;;5.00;87.10;;;;;;5028444;28;20196;-63
2023/02/28 11:17:27;;;;;;;8.85;7.95;;;4.70;85.70;;;;;;5021955;28;20192;-64
2023/02/28 11:20:01;;;;;;;10.35;9.02;;;4.60;85.60;;;;;;5028888;28;20209;-64
2023/02/28 11:22:30;;;;;;;10.80;9.13;;;5.20;86.10;;;;;;5025638;28;20555;-63
2023/02/28 11:25:00;;;;;;;8.85;7.82;;;4.30;85.70;;;;;;5020678;28;20557;-64
2023/02/28 11:27:33;;;;;;;8.25;7.45;;;6.00;85.20;;;;;;5024280;28;20178;-63
2023/02/28 11:30:00;;;;;;;8.65;7.70;;;6.40;81.40;;;;;;5022023;28;20182;-64
2023/02/28 11:32:30;;;;;;;9.32;7.93;;;7.20;78.20;;;;;;5024459;28;20179;-64
2023/02/28 11:35:11;;;;;;;10.95;8.38;;;7.40;75.10;;;;;;5025831;28;20287;-66
2023/02/28 11:37:38;;;;;;;9.20;7.00;;;9.00;72.20;;;;;;5027176;28;20274;-63
2023/02/28 11:40:21;;;;;;;8.70;7.90;;;8.80;67.70;;;;;;5024267;28;20567;-64
2023/02/28 11:43:05;;;;;;;9.60;8.63;;;8.80;68.40;;;;;;5023156;28;20241;-63
2023/02/28 11:45:50;;;;;;;9.52;8.52;;;8.40;68.40;;;;;;5025401;28;20187;-63
2023/02/28 11:48:38;;;;;;;9.13;8.13;;;8.60;69.20;;;;;;5025184;28;20225;-64
2023/02/28 11:51:04;;;;;;;9.40;8.40;;;8.30;69.40;;;;;;5026106;28;20251;-62
2023/02/28 11:53:44;;;;;;;9.17;7.80;;;7.90;70.40;;;;;;5021967;28;20214;-64
2023/02/28 11:56:28;;;;;;;9.60;8.35;;;7.70;71.30;;;;;;5022535;28;20190;-63
2023/02/28 11:59:19;;;;;;;8.70;7.82;;;7.40;72.20;;;;;;5024932;28;20563;-64
2023/02/28 12:02:02;;;;;;;9.45;8.45;;;7.40;72.80;;;;;;5020368;28;20190;-63
2023/02/28 12:04:39;;;;;;;8.40;7.60;;;7.80;72.90;;;;;;5024248;28;20639;-63
2023/02/28 12:07:49;;;;;;;9.23;8.27;;;8.20;71.20;;;;;;5022933;28;20189;-64
2023/02/28 12:10:36;;;;;;;10.57;8.75;;;7.60;70.20;;;;;;5002562;28;20648;-64
2023/02/28 12:13:05;;;;;;;12.15;8.52;;;7.60;70.70;;;;;;5028732;28;20210;-64
2023/02/28 12:16:12;;;;;;;9.68;8.15;;;7.90;71.30;;;;;;5025732;28;20310;-63
2023/02/28 12:19:04;;;;;;;9.70;8.23;;;7.20;70.90;;;;;;5006495;28;20217;-64
2023/02/28 12:21:44;;;;;;;9.45;8.13;;;7.30;72.60;;;;;;5023996;28;20187;-64
2023/02/28 12:24:33;;;;;;;8.43;7.63;;;7.40;72.50;;;;;;5023356;28;20304;-64
2023/02/28 12:27:02;;;;;;;9.43;8.35;;;7.60;71.60;;;;;;5022465;28;20562;-65
2023/02/28 12:29:30;;;;;;;8.93;7.72;;;6.60;71.50;;;;;;5028649;28;20267;-63
2023/02/28 12:32:06;;;;;;;8.95;8.13;;;7.20;72.30;;;;;;5022226;28;20554;-64
2023/02/28 12:34:37;;;;;;;8.68;7.47;;;7.50;72.30;;;;;;5024424;28;20305;-64
2023/02/28 12:37:08;;;;;;;9.77;8.23;;;7.60;71.20;;;;;;5026197;28;20186;-64
2023/02/28 12:39:40;;;;;;;9.68;7.90;;;7.10;71.20;;;;;;5026607;28;20725;-64
2023/02/28 12:42:29;;;;;;;11.95;9.10;;;7.50;71.80;;;;;;5027893;28;20600;-64
2023/02/28 12:45:01;;;;;;;9.85;8.75;;;6.70;72.90;;;;;;5023819;28;20240;-65
2023/02/28 12:47:26;;;;;;;10.15;8.85;;;6.60;73.80;;;;;;5024349;28;20216;-65
2023/02/28 12:50:03;;;;;;;9.23;8.10;;;6.50;74.40;;;;;;5026815;28;20202;-65
2023/02/28 12:52:43;;;;;;;12.73;7.70;;;6.60;73.70;;;;;;5025801;28;20276;-63
2023/02/28 12:55:35;;;;;;;10.07;8.57;;;6.70;73.60;;;;;;5019959;28;20237;-64
2023/02/28 12:58:34;;;;;;;10.98;8.70;;;7.00;73.80;;;;;;5011578;28;20762;-68
2023/02/28 13:01:16;;;;;;;8.70;7.90;;;6.90;73.70;;;;;;5025850;28;20233;-68
2023/02/28 13:04:05;;;;;;;9.13;8.32;;;6.90;73.90;;;;;;5027054;28;20225;-68
2023/02/28 13:07:00;;;;;;;9.77;8.27;;;7.10;73.40;;;;;;5028967;28;20659;-67
2023/02/28 13:09:26;;;;;;;9.35;8.45;;;7.00;73.30;;;;;;5022618;28;20210;-68
2023/02/28 13:11:54;;;;;;;9.75;8.60;;;7.00;72.80;;;;;;5029217;28;20615;-66
2023/02/28 13:14:44;;;;;;;10.45;8.88;;;7.10;73.50;;;;;;5029093;28;20222;-66
2023/02/28 13:17:12;;;;;;;10.13;8.70;;;7.40;74.00;;;;;;5024738;28;20236;-67